createdAt,value
2022-12-03T00:00:48.953Z,-21.56
2022-12-03T00:03:18.100Z,-21.44
2022-12-03T00:05:49.086Z,-21.69
2022-12-03T00:08:18.401Z,-21.68
2022-12-03T00:10:47.779Z,-21.60
2022-12-03T00:13:16.258Z,-21.67
2022-12-03T00:15:46.160Z,-21.45
2022-12-03T00:18:15.179Z,-21.69
2022-12-03T00:20:46.251Z,-21.44
2022-12-03T00:23:15.217Z,-21.50
2022-12-03T00:25:44.169Z,-22.10
2022-12-03T00:28:12.826Z,-21.50
2022-12-03T00:30:41.688Z,-21.62
2022-12-03T00:33:10.526Z,-21.48
2022-12-03T00:35:39.447Z,-21.30
2022-12-03T00:38:08.338Z,-21.40
2022-12-03T00:40:37.192Z,-21.44
2022-12-03T00:43:05.821Z,-21.44
2022-12-03T00:45:34.668Z,-21.39
2022-12-03T00:48:03.399Z,-21.32
2022-12-03T00:50:32.332Z,-21.36
2022-12-03T00:53:00.868Z,-21.30
2022-12-03T00:55:29.924Z,-21.43
2022-12-03T00:57:58.793Z,-21.21
2022-12-03T01:00:27.888Z,-21.45
2022-12-03T01:02:56.709Z,-21.44
2022-12-03T01:05:25.864Z,-21.26
2022-12-03T01:07:54.762Z,-21.36
2022-12-03T01:10:23.890Z,-21.47
2022-12-03T01:12:52.759Z,-21.46
2022-12-03T01:15:21.489Z,-21.35
2022-12-03T01:17:50.595Z,-21.35
2022-12-03T01:20:19.815Z,-21.34
2022-12-03T01:22:48.546Z,-21.87
2022-12-03T01:25:17.631Z,-21.41
2022-12-03T01:27:46.497Z,-21.94
2022-12-03T01:30:15.618Z,-21.36
2022-12-03T01:32:44.777Z,-21.33
2022-12-03T01:35:13.775Z,-21.29
2022-12-03T01:37:42.751Z,-21.30
2022-12-03T01:40:16.555Z,-21.19
2022-12-03T01:42:45.240Z,-21.18
2022-12-03T01:45:23.028Z,-21.32
2022-12-03T01:47:52.217Z,-21.23
2022-12-03T01:50:32.904Z,-21.35
2022-12-03T01:53:06.138Z,-21.50
2022-12-03T01:55:35.121Z,-21.25
2022-12-03T01:58:04.796Z,-21.37
2022-12-03T02:00:33.783Z,-21.67
2022-12-03T02:03:06.796Z,-21.38
2022-12-03T02:05:35.733Z,-21.47
2022-12-03T02:08:34.882Z,-21.31
2022-12-03T02:11:28.239Z,-21.55
2022-12-03T02:14:02.597Z,-21.47
2022-12-03T02:16:31.900Z,-21.59
2022-12-03T02:19:01.011Z,-21.67
2022-12-03T02:21:38.301Z,-21.69
2022-12-03T02:24:32.115Z,-21.76
2022-12-03T02:27:00.992Z,-21.64
2022-12-03T02:29:30.213Z,-21.66
2022-12-03T02:31:59.431Z,-21.64
2022-12-03T02:34:41.817Z,-21.69
2022-12-03T02:37:16.579Z,-21.69
2022-12-03T02:39:51.115Z,-21.71
2022-12-03T02:42:36.733Z,-21.92
2022-12-03T02:45:31.061Z,-21.79
2022-12-03T02:48:01.983Z,-21.82
2022-12-03T02:50:37.946Z,-22.82
2022-12-03T02:53:20.375Z,-22.03
2022-12-03T02:55:51.780Z,-22.07
2022-12-03T02:58:21.592Z,-22.11
2022-12-03T03:00:53.239Z,-22.13
2022-12-03T03:03:25.514Z,-22.04
2022-12-03T03:05:57.405Z,-22.15
2022-12-03T03:08:27.515Z,-21.99
2022-12-03T03:10:58.234Z,-22.20
2022-12-03T03:13:27.152Z,-22.17
2022-12-03T03:15:57.104Z,-22.16
2022-12-03T03:18:26.144Z,-22.06
2022-12-03T03:20:55.222Z,-22.06
2022-12-03T03:23:26.145Z,-22.14
2022-12-03T03:26:09.772Z,-22.09
2022-12-03T03:28:41.511Z,-22.27
2022-12-03T03:31:13.416Z,-22.12
2022-12-03T03:33:44.426Z,-22.17
2022-12-03T03:36:14.378Z,-22.24
2022-12-03T03:38:43.490Z,-22.23
2022-12-03T03:41:13.766Z,-22.03
2022-12-03T03:43:44.528Z,-22.10
2022-12-03T03:46:14.530Z,-21.97
2022-12-03T03:48:44.810Z,-21.98
2022-12-03T03:51:14.562Z,-22.08
2022-12-03T03:53:48.647Z,-22.17
2022-12-03T03:56:20.388Z,-22.74
2022-12-03T03:58:49.074Z,-22.31
2022-12-03T04:01:19.125Z,-22.15
2022-12-03T04:03:48.051Z,-22.13
2022-12-03T04:06:17.274Z,-22.14
2022-12-03T04:08:46.053Z,-22.09
2022-12-03T04:11:33.441Z,-22.02
2022-12-03T04:14:04.614Z,-22.10
2022-12-03T04:16:33.589Z,-22.08
2022-12-03T04:19:02.317Z,-22.02
2022-12-03T04:21:49.188Z,-21.85
2022-12-03T04:24:17.935Z,-21.74
2022-12-03T04:27:05.135Z,-21.71
2022-12-03T04:29:33.977Z,-21.75
2022-12-03T04:32:21.057Z,-21.76
2022-12-03T04:35:07.932Z,-21.67
2022-12-03T04:37:36.539Z,-21.51
2022-12-03T04:40:25.737Z,-21.59
2022-12-03T04:42:54.575Z,-21.59
2022-12-03T04:45:23.274Z,-21.39
2022-12-03T04:47:54.518Z,-21.55
2022-12-03T04:50:25.527Z,-21.34
2022-12-03T04:52:54.358Z,-21.42
2022-12-03T04:55:23.738Z,-21.88
2022-12-03T04:57:52.399Z,-21.41
2022-12-03T05:00:21.421Z,-21.40
2022-12-03T05:02:50.241Z,-21.32
2022-12-03T05:05:19.448Z,-21.29
2022-12-03T05:07:48.431Z,-21.34
2022-12-03T05:10:17.374Z,-21.41
2022-12-03T05:12:46.367Z,-21.23
2022-12-03T05:15:15.416Z,-21.04
2022-12-03T05:17:44.187Z,-21.19
2022-12-03T05:20:31.983Z,-21.20
2022-12-03T05:23:00.751Z,-20.99
2022-12-03T05:25:29.665Z,-20.79
2022-12-03T05:27:58.405Z,-20.91
2022-12-03T05:30:27.138Z,-20.84
2022-12-03T05:32:55.923Z,-21.20
2022-12-03T05:35:24.946Z,-21.15
2022-12-03T05:37:53.647Z,-21.12
2022-12-03T05:40:22.811Z,-20.53
2022-12-03T05:43:02.550Z,-20.41
2022-12-03T05:45:40.813Z,-20.29
2022-12-03T05:48:12.986Z,-20.31
2022-12-03T05:50:45.106Z,-20.27
2022-12-03T05:53:18.310Z,-20.15
2022-12-03T05:55:47.651Z,-20.00
2022-12-03T05:58:16.623Z,-19.94
2022-12-03T06:00:45.488Z,-20.01
2022-12-03T06:03:14.675Z,-20.04
2022-12-03T06:05:43.721Z,-19.93
2022-12-03T06:08:12.990Z,-19.88
2022-12-03T06:10:42.114Z,-20.41
2022-12-03T06:13:11.069Z,-19.87
2022-12-03T06:15:43.776Z,-19.85
2022-12-03T06:18:13.297Z,-19.60
2022-12-03T06:20:42.353Z,-20.12
2022-12-03T06:23:11.224Z,-19.27
2022-12-03T06:25:40.342Z,-19.25
2022-12-03T06:28:09.836Z,-19.16
2022-12-03T06:30:38.981Z,-19.22
2022-12-03T06:33:08.171Z,-18.98
2022-12-03T06:35:37.558Z,-19.05
2022-12-03T06:38:06.739Z,-18.77
2022-12-03T06:40:35.550Z,-19.38
2022-12-03T06:43:04.679Z,-18.85
2022-12-03T06:45:33.541Z,-18.79
2022-12-03T06:48:02.687Z,-19.18
2022-12-03T06:50:31.745Z,-18.71
2022-12-03T06:53:00.506Z,-18.53
2022-12-03T06:55:29.143Z,-18.56
2022-12-03T06:57:57.818Z,-18.46
2022-12-03T07:00:26.526Z,-18.89
2022-12-03T07:02:55.335Z,-18.44
2022-12-03T07:05:23.986Z,-18.47
2022-12-03T07:07:56.267Z,-18.38
2022-12-03T07:10:25.031Z,-18.20
2022-12-03T07:12:54.980Z,-18.63
2022-12-03T07:15:23.846Z,-18.21
2022-12-03T07:17:52.562Z,-18.04
2022-12-03T07:20:21.398Z,-18.04
2022-12-03T07:22:50.021Z,-17.94
2022-12-03T07:25:23.081Z,-17.95
2022-12-03T07:27:52.604Z,-17.84
2022-12-03T07:30:22.180Z,-17.77
2022-12-03T07:32:51.114Z,-18.10
2022-12-03T07:35:19.707Z,-17.69
2022-12-03T07:37:49.068Z,-17.46
2022-12-03T07:40:17.866Z,-17.40
2022-12-03T07:42:46.634Z,-17.38
2022-12-03T07:45:15.718Z,-17.63
2022-12-03T07:47:44.538Z,-17.34
2022-12-03T07:50:13.618Z,-17.36
2022-12-03T07:52:42.382Z,-17.22
2022-12-03T07:55:14.413Z,-17.21
2022-12-03T07:57:44.480Z,-17.09
2022-12-03T08:00:15.204Z,-17.11
2022-12-03T08:02:44.725Z,-17.21
2022-12-03T08:05:13.953Z,-17.20
2022-12-03T08:07:42.641Z,-16.97
2022-12-03T08:10:11.959Z,-17.07
2022-12-03T08:12:41.234Z,-17.11
2022-12-03T08:15:15.204Z,-17.04
2022-12-03T08:17:46.138Z,-16.99
2022-12-03T08:20:18.109Z,-16.97
2022-12-03T08:22:48.720Z,-16.90
2022-12-03T08:25:29.967Z,-16.98
2022-12-03T08:28:17.433Z,-16.78
2022-12-03T08:30:59.974Z,-16.64
2022-12-03T08:33:36.996Z,-16.62
2022-12-03T08:36:26.846Z,-16.78
2022-12-03T08:39:06.503Z,-16.75
2022-12-03T08:41:55.961Z,-16.64
2022-12-03T08:44:31.227Z,-16.49
2022-12-03T08:47:20.375Z,-16.62
2022-12-03T08:50:03.936Z,-16.51
2022-12-03T08:52:35.421Z,-16.49
2022-12-03T08:55:30.604Z,-16.47
2022-12-03T08:58:00.311Z,-16.38
2022-12-03T09:00:30.023Z,-16.44
2022-12-03T09:03:01.956Z,-16.44
2022-12-03T09:05:36.186Z,-16.43
2022-12-03T09:08:05.405Z,-16.43
2022-12-03T09:10:34.460Z,-16.87
2022-12-03T09:13:03.887Z,-16.51
2022-12-03T09:15:37.470Z,-17.05
2022-12-03T09:18:07.559Z,-16.39
2022-12-03T09:20:37.473Z,-16.86
2022-12-03T09:23:07.133Z,-16.50
2022-12-03T09:25:36.661Z,-16.53
2022-12-03T09:28:06.358Z,-16.53
2022-12-03T09:30:35.194Z,-16.41
2022-12-03T09:33:04.680Z,-17.17
2022-12-03T09:35:34.758Z,-16.51
2022-12-03T09:38:03.929Z,-16.51
2022-12-03T09:40:33.382Z,-16.49
2022-12-03T09:43:02.724Z,-16.66
2022-12-03T09:45:32.481Z,-16.66
2022-12-03T09:48:04.486Z,-16.65
2022-12-03T09:50:33.778Z,-16.94
2022-12-03T09:53:04.822Z,-16.74
2022-12-03T09:55:34.427Z,-16.77
2022-12-03T09:58:03.857Z,-16.90
2022-12-03T10:00:32.937Z,-17.04
2022-12-03T10:03:05.828Z,-17.09
2022-12-03T10:05:35.598Z,-17.17
2022-12-03T10:08:13.913Z,-16.99
2022-12-03T10:10:43.479Z,-17.21
2022-12-03T10:13:25.793Z,-17.28
2022-12-03T10:15:59.075Z,-17.48
2022-12-03T10:18:41.271Z,-17.64
2022-12-03T10:21:23.856Z,-17.41
2022-12-03T10:24:18.697Z,-17.37
2022-12-03T10:26:51.261Z,-17.90
2022-12-03T10:29:33.150Z,-17.46
2022-12-03T10:32:08.837Z,-17.54
2022-12-03T10:34:40.616Z,-17.74
2022-12-03T10:37:23.726Z,-17.84
2022-12-03T10:40:02.623Z,-17.89
2022-12-03T10:42:34.236Z,-17.96
2022-12-03T11:13:30.763Z,-18.57
2022-12-03T11:16:00.847Z,-18.81
2022-12-03T11:18:38.903Z,-18.65
2022-12-03T11:21:13.999Z,-18.83
2022-12-03T11:23:45.763Z,-18.70
2022-12-03T11:26:27.889Z,-18.78
2022-12-03T11:28:56.785Z,-18.77
2022-12-03T11:31:39.680Z,-18.86
2022-12-03T11:34:21.107Z,-18.82
2022-12-03T11:37:12.764Z,-18.87
2022-12-03T11:39:53.522Z,-18.90
2022-12-03T11:42:28.578Z,-18.94
2022-12-03T11:45:29.207Z,-18.98
2022-12-03T11:48:01.125Z,-19.02
2022-12-03T11:50:41.436Z,-19.12
2022-12-03T11:53:18.067Z,-19.23
2022-12-03T11:55:53.099Z,-19.07
2022-12-03T11:58:30.471Z,-19.11
2022-12-03T12:01:01.868Z,-19.68
2022-12-03T12:03:48.891Z,-19.20
2022-12-03T12:06:21.336Z,-19.37
2022-12-03T12:12:44.408Z,-19.44
2022-12-03T12:15:45.136Z,-19.31
2022-12-03T12:18:37.508Z,-19.34
2022-12-03T12:21:43.361Z,-19.37
2022-12-03T12:24:48.692Z,-19.42
2022-12-03T12:27:18.919Z,-19.55
2022-12-03T12:29:58.804Z,-19.53
2022-12-03T12:32:39.559Z,-19.43
2022-12-03T12:35:31.615Z,-19.99
2022-12-03T12:45:57.451Z,-19.61
2022-12-03T12:48:31.151Z,-19.78
2022-12-03T12:51:14.799Z,-19.58
2022-12-03T13:11:35.366Z,-19.67
2022-12-03T13:14:16.925Z,-19.72
2022-12-03T13:16:47.175Z,-19.77
2022-12-03T13:19:31.215Z,-19.66
2022-12-03T13:22:16.034Z,-19.77
2022-12-03T13:24:48.588Z,-19.79
2022-12-03T13:27:20.585Z,-19.72
2022-12-03T13:29:54.396Z,-19.74
2022-12-03T13:32:32.006Z,-19.81
2022-12-03T13:35:17.093Z,-19.89
2022-12-03T13:37:46.593Z,-20.09
2022-12-03T13:40:28.891Z,-19.85
2022-12-03T13:43:00.960Z,-20.04
2022-12-03T13:45:39.885Z,-19.94
2022-12-03T13:48:45.933Z,-19.98
2022-12-03T13:51:28.194Z,-20.68
2022-12-03T13:54:00.032Z,-20.10
2022-12-03T13:56:31.572Z,-20.40
2022-12-03T13:59:02.523Z,-20.26
2022-12-03T14:01:31.642Z,-20.19
2022-12-03T14:04:01.178Z,-20.21
2022-12-03T14:06:30.118Z,-20.25
2022-12-03T14:09:02.723Z,-20.55
2022-12-03T14:11:50.434Z,-20.52
2022-12-03T14:14:19.214Z,-20.48
2022-12-03T14:16:48.506Z,-20.56
2022-12-03T14:19:17.502Z,-20.45
2022-12-03T14:21:46.719Z,-20.47
2022-12-03T14:24:15.628Z,-20.55
2022-12-03T14:26:44.657Z,-20.58
2022-12-03T14:29:13.610Z,-20.65
2022-12-03T14:31:42.680Z,-20.40
2022-12-03T14:34:12.282Z,-20.65
2022-12-03T14:36:41.698Z,-20.55
2022-12-03T14:39:10.530Z,-21.00
2022-12-03T14:42:18.651Z,-20.58
2022-12-03T14:44:50.769Z,-20.75
2022-12-03T14:47:25.579Z,-20.64
2022-12-03T14:49:55.520Z,-20.61
2022-12-03T14:52:24.864Z,-20.76
2022-12-03T14:54:54.375Z,-20.70
2022-12-03T14:57:24.384Z,-20.73
2022-12-03T14:59:54.319Z,-20.78
2022-12-03T15:02:25.744Z,-20.60
2022-12-03T15:04:54.866Z,-20.74
2022-12-03T15:07:25.531Z,-20.78
2022-12-03T15:09:55.691Z,-20.67
2022-12-03T15:12:24.889Z,-20.76
2022-12-03T15:14:53.990Z,-20.75
2022-12-03T15:17:31.069Z,-20.73
2022-12-03T15:24:08.937Z,-20.63
2022-12-03T15:26:38.389Z,-20.48
2022-12-03T15:29:07.390Z,-20.62
2022-12-03T15:31:36.286Z,-20.64
2022-12-03T15:34:08.952Z,-20.62
2022-12-03T15:36:37.773Z,-20.57
2022-12-03T15:39:06.645Z,-21.28
2022-12-03T15:41:35.204Z,-20.53
2022-12-03T15:44:03.704Z,-20.75
2022-12-03T15:46:34.635Z,-20.53
2022-12-03T15:49:03.482Z,-20.71
2022-12-03T15:51:32.043Z,-20.86
2022-12-03T15:54:00.677Z,-20.91
2022-12-03T15:56:29.097Z,-20.70
2022-12-03T15:58:57.675Z,-20.57
2022-12-03T16:01:26.399Z,-20.80
2022-12-03T16:03:55.307Z,-20.75
2022-12-03T16:06:24.173Z,-20.74
2022-12-03T16:08:52.735Z,-20.58
2022-12-03T16:11:21.614Z,-20.76
2022-12-03T16:13:50.868Z,-20.70
2022-12-03T16:16:19.725Z,-21.27
2022-12-03T16:18:48.963Z,-20.74
2022-12-03T16:21:23.386Z,-20.79
2022-12-03T16:23:55.302Z,-20.96
2022-12-03T16:26:25.002Z,-20.90
2022-12-03T16:28:54.473Z,-20.84
2022-12-03T16:31:23.681Z,-20.87
2022-12-03T16:33:52.446Z,-21.06
2022-12-03T16:36:24.144Z,-20.95
2022-12-03T16:38:52.684Z,-20.96
2022-12-03T16:41:23.177Z,-21.12
2022-12-03T16:43:52.106Z,-21.22
2022-12-03T16:46:22.097Z,-21.11
2022-12-03T16:48:51.332Z,-21.16
2022-12-03T16:51:20.856Z,-21.20
2022-12-03T16:53:50.022Z,-21.80
2022-12-03T16:56:18.832Z,-21.40
2022-12-03T16:58:47.520Z,-21.25
2022-12-03T17:01:17.124Z,-21.23
2022-12-03T17:03:45.794Z,-21.36
2022-12-03T17:06:14.559Z,-21.33
2022-12-03T17:08:48.810Z,-21.31
2022-12-03T17:11:19.101Z,-21.29
2022-12-03T17:13:47.958Z,-21.35
2022-12-03T17:16:16.907Z,-21.49
2022-12-03T17:18:45.818Z,-21.59
2022-12-03T17:21:14.654Z,-21.70
2022-12-03T17:23:43.912Z,-21.67
2022-12-03T17:26:12.601Z,-21.81
2022-12-03T17:28:41.242Z,-21.86
2022-12-03T17:31:10.389Z,-21.77
2022-12-03T17:33:40.106Z,-21.85
2022-12-03T17:36:09.499Z,-21.81
2022-12-03T17:38:39.442Z,-21.92
2022-12-03T17:41:09.619Z,-21.88
2022-12-03T17:43:38.659Z,-22.12
2022-12-03T17:46:08.273Z,-22.93
2022-12-03T17:48:37.171Z,-22.18
2022-12-03T17:51:07.167Z,-22.07
2022-12-03T17:53:36.766Z,-22.14
2022-12-03T17:56:05.610Z,-22.12
2022-12-03T17:58:34.333Z,-22.56
2022-12-03T18:01:03.481Z,-22.35
2022-12-03T18:03:32.545Z,-22.20
2022-12-03T18:06:03.547Z,-22.23
2022-12-03T18:08:32.441Z,-22.23
2022-12-03T18:11:01.617Z,-22.14
2022-12-03T18:13:30.441Z,-22.27
2022-12-03T18:15:59.285Z,-22.17
2022-12-03T18:18:28.918Z,-22.28
2022-12-03T18:21:02.763Z,-22.41
2022-12-03T18:23:32.019Z,-22.24
2022-12-03T18:26:02.784Z,-22.45
2022-12-03T18:28:34.657Z,-22.34
2022-12-03T18:31:03.539Z,-22.30
2022-12-03T18:33:32.395Z,-22.46
2022-12-03T18:36:01.414Z,-22.41
2022-12-03T18:38:33.567Z,-22.97
2022-12-03T18:41:02.674Z,-22.30
2022-12-03T18:43:31.766Z,-22.94
2022-12-03T18:46:00.632Z,-22.62
2022-12-03T18:48:29.471Z,-22.49
2022-12-03T18:50:58.153Z,-22.49
2022-12-03T18:53:27.012Z,-22.51
2022-12-03T18:55:55.632Z,-22.39
2022-12-03T18:58:24.922Z,-22.20
2022-12-03T19:00:53.837Z,-22.45
2022-12-03T19:03:22.792Z,-22.47
2022-12-03T19:05:51.715Z,-23.32
2022-12-03T19:08:20.806Z,-23.04
2022-12-03T19:10:58.296Z,-22.46
2022-12-03T19:13:28.843Z,-22.44
2022-12-03T19:15:57.782Z,-22.59
2022-12-03T19:18:26.400Z,-22.53
2022-12-03T19:20:55.014Z,-22.62
2022-12-03T19:23:23.871Z,-22.63
2022-12-03T19:25:59.830Z,-22.69
2022-12-03T19:28:30.125Z,-22.60
2022-12-03T19:31:01.635Z,-22.72
2022-12-03T19:33:31.151Z,-22.68
2022-12-03T19:36:00.657Z,-22.71
2022-12-03T19:38:30.894Z,-22.72
2022-12-03T19:41:09.945Z,-22.92
2022-12-03T19:43:39.563Z,-22.86
2022-12-03T19:46:10.685Z,-22.76
2022-12-03T19:48:41.469Z,-22.84
2022-12-03T19:51:32.941Z,-23.02
2022-12-03T19:54:00.977Z,-22.96
2022-12-03T19:56:31.117Z,-23.00
2022-12-03T19:59:00.299Z,-22.88
2022-12-03T20:01:32.032Z,-22.85
2022-12-03T20:04:03.299Z,-22.99
2022-12-03T20:06:34.715Z,-23.10
2022-12-03T20:09:08.472Z,-22.91
2022-12-03T20:11:37.518Z,-22.93
2022-12-03T20:14:09.635Z,-22.81
2022-12-03T20:16:38.514Z,-22.86
2022-12-03T20:19:11.348Z,-22.84
2022-12-03T20:21:43.937Z,-23.14
2022-12-03T20:24:17.944Z,-23.07
2022-12-03T20:26:49.241Z,-23.07
2022-12-03T20:29:18.691Z,-22.98
2022-12-03T20:31:47.487Z,-22.89
2022-12-03T20:34:16.081Z,-22.92
2022-12-03T20:36:46.440Z,-22.93
2022-12-03T20:39:15.192Z,-23.17
2022-12-03T20:41:43.937Z,-22.94
2022-12-03T20:44:14.716Z,-23.34
2022-12-03T20:46:43.512Z,-23.01
2022-12-03T20:49:12.425Z,-23.21
2022-12-03T20:51:43.180Z,-23.32
2022-12-03T20:54:11.879Z,-22.94
2022-12-03T20:56:40.807Z,-23.10
2022-12-03T20:59:13.206Z,-23.00
2022-12-03T21:01:42.815Z,-23.06
2022-12-03T21:04:18.910Z,-23.00
2022-12-03T21:06:47.660Z,-23.17
2022-12-03T21:09:16.275Z,-23.09
2022-12-03T21:11:45.024Z,-22.96
2022-12-03T21:14:13.841Z,-22.94
2022-12-03T21:17:07.413Z,-22.93
2022-12-03T21:19:32.379Z,-23.15
2022-12-03T21:22:01.296Z,-23.05
2022-12-03T21:24:30.820Z,-23.24
2022-12-03T21:27:00.017Z,-23.02
2022-12-03T21:29:28.802Z,-23.26
2022-12-03T21:31:57.486Z,-23.26
2022-12-03T21:34:28.066Z,-23.12
2022-12-03T21:36:58.963Z,-23.14
2022-12-03T21:39:27.638Z,-23.23
2022-12-03T21:42:25.910Z,-23.06
2022-12-03T21:44:45.201Z,-23.24
2022-12-03T21:47:14.600Z,-23.07
2022-12-03T21:49:43.559Z,-23.16
2022-12-03T21:52:13.811Z,-23.39
2022-12-03T21:54:42.758Z,-23.24
2022-12-03T21:57:11.808Z,-23.24
2022-12-03T21:59:40.415Z,-23.39
2022-12-03T22:02:10.762Z,-23.34
2022-12-03T22:04:40.518Z,-23.46
2022-12-03T22:07:09.239Z,-23.14
2022-12-03T22:09:37.874Z,-23.28
2022-12-03T22:12:07.222Z,-23.16
2022-12-03T22:14:35.958Z,-23.09
2022-12-03T22:17:04.766Z,-23.43
2022-12-03T22:19:33.438Z,-23.35
2022-12-03T22:22:02.518Z,-23.23
2022-12-03T22:24:31.486Z,-23.27
2022-12-03T22:27:00.295Z,-23.30
2022-12-03T22:29:29.029Z,-23.23
2022-12-03T22:31:58.080Z,-23.33
2022-12-03T22:34:26.901Z,-23.34
2022-12-03T22:36:56.727Z,-23.40
2022-12-03T22:39:25.571Z,-23.48
2022-12-03T22:41:54.249Z,-23.38
2022-12-03T22:44:23.106Z,-23.38
2022-12-03T22:46:52.071Z,-23.29
2022-12-03T22:49:20.767Z,-23.83
2022-12-03T22:51:49.646Z,-23.36
2022-12-03T22:54:23.782Z,-23.38
2022-12-03T22:56:53.000Z,-23.45
2022-12-03T22:59:21.681Z,-23.23
2022-12-03T23:01:50.402Z,-23.24
2022-12-03T23:04:19.204Z,-23.62
2022-12-03T23:06:47.831Z,-23.36
2022-12-03T23:09:16.678Z,-23.31
2022-12-03T23:11:46.055Z,-23.31
2022-12-03T23:14:15.103Z,-23.48
2022-12-03T23:16:43.681Z,-23.32
2022-12-03T23:19:12.886Z,-23.50
2022-12-03T23:21:41.651Z,-23.52
2022-12-03T23:24:11.807Z,-23.37
2022-12-03T23:26:40.899Z,-23.89
2022-12-03T23:29:15.079Z,-23.56
2022-12-03T23:31:44.051Z,-23.56
2022-12-03T23:34:12.817Z,-23.58
2022-12-03T23:36:42.440Z,-23.69
2022-12-03T23:39:11.464Z,-23.54
2022-12-03T23:41:40.195Z,-23.58
2022-12-03T23:44:10.911Z,-23.55
2022-12-03T23:46:41.016Z,-23.39
2022-12-03T23:49:09.789Z,-23.60
2022-12-03T23:51:39.219Z,-23.53
2022-12-03T23:54:08.019Z,-23.43
2022-12-03T23:56:37.034Z,-23.54
2022-12-03T23:59:06.016Z,-23.52
